Weather at Rivers Airport [CLOSED]

Public forecast

Using degrees Celsius for public forecast. Weather courtesy of forecast.io.

Closest aviation weather report (METAR) to Rivers Airport

Closest report is Brandon Municipal Airport, 15.2 nm (28.2 km) ESE. Retrieved 2020/11/27 16:00 UTC (37 minutes ago):

CYBR 271600Z 23012KT 15SM SCT078 BKN250 M04/M06 A2983 RMK AC4CI3 SLP134

Closest aviation forecast (TAF) to Rivers Airport

Closest forecast is Brandon Municipal Airport, 15.2 nm (28.2 km) ESE. Retrieved 2020/11/27 12:51 UTC (4 hours ago):

TAF TAF CYBR 271146Z 2712/2724 24008KT P6SM BKN080 FM271600 24012KT P6SM BKN120 FM271800 25015KT P6SM SCT120 FM272300 25010KT P6SM SKC RMK NXT FCST BY 271800Z